Time;durP1;ratioP1;P1;durP2;ratioP2;P2;SDS_P1;SDS_P2;PMS_P1;PMS_P2;Temp;Humidity;BMP_temperature;BMP_pressure;BME280_temperature;BME280_humidity;BME280_pressure;Samples;Min_cycle;Max_cycle;Signal;HPM_P1;HPM_P2
2022/08/25 00:00:16;;;;;;;14.30;8.53;;;;;;;;;;5074430;28;20456;-74
2022/08/25 00:02:44;;;;;;;10.40;8.73;;;;;;;;;;5074344;28;20505;-74
2022/08/25 00:05:11;;;;;;;13.27;8.67;;;;;;;;;;5074064;28;20987;-74
2022/08/25 00:07:39;;;;;;;13.60;9.23;;;;;;;;;;5074173;28;20452;-74
2022/08/25 00:10:08;;;;;;;14.17;8.57;;;;;;;;;;5074238;28;20550;-74
2022/08/25 00:12:35;;;;;;;11.53;8.50;;;;;;;;;;5073934;28;20811;-74
2022/08/25 00:15:02;;;;;;;12.30;10.13;;;;;;;;;;5073386;28;20456;-74
2022/08/25 00:17:29;;;;;;;10.10;7.67;;;;;;;;;;5073818;28;20494;-74
2022/08/25 00:19:56;;;;;;;12.23;9.10;;;;;;;;;;5073875;28;20458;-74
2022/08/25 00:22:23;;;;;;;12.67;9.53;;;;;;;;;;5073664;28;20840;-74
2022/08/25 00:24:52;;;;;;;15.33;9.70;;;;;;;;;;5073633;28;20472;-74
2022/08/25 00:27:19;;;;;;;13.00;9.40;;;;;;;;;;5073796;28;20796;-74
2022/08/25 00:29:46;;;;;;;13.80;9.90;;;;;;;;;;5073702;28;20555;-74
2022/08/25 00:32:14;;;;;;;14.20;9.97;;;;;;;;;;5073651;28;20967;-74
2022/08/25 00:34:41;;;;;;;14.80;10.50;;;;;;;;;;5073415;28;20570;-74
2022/08/25 00:37:09;;;;;;;15.60;10.93;;;;;;;;;;5073373;28;20483;-74
2022/08/25 00:39:36;;;;;;;14.57;11.20;;;;;;;;;;5072624;28;20786;-74
2022/08/25 00:42:05;;;;;;;20.83;11.40;;;;;;;;;;5073542;28;20963;-74
2022/08/25 00:44:34;;;;;;;13.07;10.87;;;;;;;;;;5073094;28;20482;-74
2022/08/25 00:47:01;;;;;;;17.57;11.90;;;;;;;;;;5073393;28;20452;-74
2022/08/25 00:49:30;;;;;;;13.43;10.30;;;;;;;;;;5073341;28;20485;-74
2022/08/25 00:52:00;;;;;;;17.57;11.60;;;;;;;;;;5073587;28;20456;-74
2022/08/25 00:54:29;;;;;;;16.10;11.50;;;;;;;;;;5072916;28;20471;-74
2022/08/25 00:56:57;;;;;;;14.43;11.20;;;;;;;;;;5073092;28;20493;-74
2022/08/25 00:59:26;;;;;;;18.30;12.00;;;;;;;;;;5073117;28;20458;-74
2022/08/25 01:01:54;;;;;;;13.00;10.10;;;;;;;;;;5073144;28;20975;-74
2022/08/25 01:04:22;;;;;;;17.27;11.50;;;;;;;;;;5072848;28;20960;-74
2022/08/25 01:06:50;;;;;;;15.10;10.67;;;;;;;;;;5073234;28;20517;-75
2022/08/25 01:09:18;;;;;;;13.53;12.13;;;;;;;;;;5072991;28;20455;-74
2022/08/25 01:11:45;;;;;;;18.93;11.40;;;;;;;;;;5073093;28;20937;-74
2022/08/25 01:14:12;;;;;;;13.57;11.07;;;;;;;;;;5072327;28;20843;-74
2022/08/25 01:16:42;;;;;;;18.17;11.43;;;;;;;;;;5073022;28;20827;-74
2022/08/25 01:19:11;;;;;;;18.63;12.30;;;;;;;;;;5073049;28;20448;-75
2022/08/25 01:21:41;;;;;;;18.90;13.00;;;;;;;;;;5072821;28;20528;-75
2022/08/25 01:24:10;;;;;;;16.80;11.50;;;;;;;;;;5072706;28;20478;-75
2022/08/25 01:26:37;;;;;;;14.00;10.20;;;;;;;;;;5072863;28;20485;-75
2022/08/25 01:29:24;;;;;;;14.77;11.33;;;;;;;;;;5072939;28;20937;-75
2022/08/25 01:31:52;;;;;;;15.93;11.93;;;;;;;;;;5072779;28;20462;-75
2022/08/25 01:34:20;;;;;;;15.10;12.07;;;;;;;;;;5072341;28;20482;-75
2022/08/25 01:36:48;;;;;;;14.80;11.87;;;;;;;;;;5072756;28;20467;-74
2022/08/25 01:39:15;;;;;;;18.90;12.10;;;;;;;;;;5072693;28;20451;-74
2022/08/25 01:41:46;;;;;;;16.33;11.40;;;;;;;;;;5072937;28;20466;-74
2022/08/25 01:44:13;;;;;;;16.00;12.37;;;;;;;;;;5072454;28;20472;-74
2022/08/25 01:46:41;;;;;;;20.23;12.00;;;;;;;;;;5072504;28;20451;-74
2022/08/25 01:49:08;;;;;;;16.00;11.30;;;;;;;;;;5072666;28;20814;-74
2022/08/25 01:51:39;;;;;;;18.30;13.20;;;;;;;;;;5074829;28;20455;-74
2022/08/25 01:54:07;;;;;;;14.77;11.20;;;;;;;;;;5076495;28;20479;-74
2022/08/25 01:56:35;;;;;;;18.03;12.03;;;;;;;;;;5076741;28;20456;-75
2022/08/25 01:59:02;;;;;;;24.83;14.13;;;;;;;;;;5076741;28;20486;-75
2022/08/25 02:01:29;;;;;;;21.07;12.47;;;;;;;;;;5076482;28;20459;-75
2022/08/25 02:03:57;;;;;;;23.10;12.30;;;;;;;;;;5076457;28;20479;-75
2022/08/25 02:06:25;;;;;;;22.40;14.50;;;;;;;;;;5076450;28;20455;-75
2022/08/25 02:08:53;;;;;;;19.47;12.77;;;;;;;;;;5076630;28;20517;-75
2022/08/25 02:11:23;;;;;;;22.00;13.80;;;;;;;;;;5076432;28;20456;-75
2022/08/25 02:13:51;;;;;;;27.07;14.70;;;;;;;;;;5075705;28;20822;-74
2022/08/25 02:16:20;;;;;;;20.73;13.00;;;;;;;;;;5076282;28;20535;-74
2022/08/25 02:18:47;;;;;;;24.03;13.80;;;;;;;;;;5076393;28;20494;-74
2022/08/25 02:21:15;;;;;;;18.53;12.33;;;;;;;;;;5076085;28;20975;-74
2022/08/25 02:23:42;;;;;;;17.80;12.47;;;;;;;;;;5076148;28;20910;-74
2022/08/25 02:26:09;;;;;;;19.63;12.60;;;;;;;;;;5076195;28;20452;-74
2022/08/25 02:28:38;;;;;;;15.80;12.00;;;;;;;;;;5075994;28;20951;-74
2022/08/25 02:31:06;;;;;;;17.10;12.00;;;;;;;;;;5076225;28;20862;-74
2022/08/25 02:33:33;;;;;;;22.17;13.50;;;;;;;;;;5075679;28;20471;-74
2022/08/25 02:36:01;;;;;;;20.03;13.57;;;;;;;;;;5076116;28;20824;-74
2022/08/25 02:38:29;;;;;;;19.83;12.30;;;;;;;;;;5075838;28;20491;-74
2022/08/25 02:40:56;;;;;;;17.37;12.97;;;;;;;;;;5075962;28;20490;-75
2022/08/25 02:43:23;;;;;;;19.50;13.87;;;;;;;;;;5075759;28;20467;-75
2022/08/25 02:45:52;;;;;;;17.17;11.87;;;;;;;;;;5075674;28;20459;-75
2022/08/25 02:48:20;;;;;;;19.60;12.80;;;;;;;;;;5075627;28;20456;-75
2022/08/25 02:50:48;;;;;;;18.33;12.10;;;;;;;;;;5075786;28;20450;-75
2022/08/25 02:53:15;;;;;;;15.93;12.87;;;;;;;;;;5075557;28;20562;-74
2022/08/25 02:55:42;;;;;;;20.40;12.63;;;;;;;;;;5075392;28;20459;-74
2022/08/25 02:58:09;;;;;;;15.00;10.23;;;;;;;;;;5075646;28;20487;-74
2022/08/25 03:00:36;;;;;;;17.50;12.77;;;;;;;;;;5075588;28;20459;-74
2022/08/25 03:03:05;;;;;;;18.80;12.53;;;;;;;;;;5074457;28;20482;-74
2022/08/25 03:05:33;;;;;;;18.50;13.73;;;;;;;;;;5075264;28;20444;-74
2022/08/25 03:08:00;;;;;;;20.13;13.30;;;;;;;;;;5075749;28;20949;-74
2022/08/25 03:10:27;;;;;;;17.60;12.17;;;;;;;;;;5075313;28;20797;-74
2022/08/25 03:12:55;;;;;;;24.90;15.43;;;;;;;;;;5074894;28;20476;-74
2022/08/25 03:15:24;;;;;;;20.40;12.97;;;;;;;;;;5075012;28;20846;-74
2022/08/25 03:17:52;;;;;;;19.90;13.10;;;;;;;;;;5075163;28;20489;-74
2022/08/25 03:20:21;;;;;;;21.20;14.63;;;;;;;;;;5075236;28;20456;-74
2022/08/25 03:22:48;;;;;;;18.37;12.50;;;;;;;;;;5074844;28;20470;-74
2022/08/25 03:28:00;;;;;;;17.20;12.70;;;;;;;;;;5075027;28;20454;-74
2022/08/25 03:30:27;;;;;;;21.37;13.97;;;;;;;;;;5074974;28;20933;-74
2022/08/25 03:32:55;;;;;;;20.60;14.30;;;;;;;;;;5075055;28;20467;-74
2022/08/25 03:35:24;;;;;;;20.43;14.57;;;;;;;;;;5074545;28;20458;-74
2022/08/25 03:37:51;;;;;;;22.10;14.90;;;;;;;;;;5074860;28;20487;-74
2022/08/25 03:40:18;;;;;;;18.33;13.33;;;;;;;;;;5074796;28;20460;-74
2022/08/25 03:42:46;;;;;;;21.60;15.60;;;;;;;;;;5074728;28;20452;-74
2022/08/25 03:45:15;;;;;;;18.07;14.47;;;;;;;;;;5074624;28;20452;-74
2022/08/25 03:47:42;;;;;;;19.63;15.43;;;;;;;;;;5074624;28;20558;-74
2022/08/25 03:50:11;;;;;;;23.23;15.37;;;;;;;;;;5074711;28;20455;-74
2022/08/25 03:52:39;;;;;;;20.97;15.03;;;;;;;;;;5074561;28;20495;-74
2022/08/25 03:55:09;;;;;;;22.60;14.90;;;;;;;;;;5074388;28;20937;-74
2022/08/25 03:57:37;;;;;;;22.73;15.03;;;;;;;;;;5074463;28;20447;-74
2022/08/25 04:00:05;;;;;;;20.30;15.10;;;;;;;;;;5074506;28;20546;-74
2022/08/25 04:02:32;;;;;;;22.40;15.50;;;;;;;;;;5074289;28;20855;-74
2022/08/25 04:04:59;;;;;;;21.70;16.10;;;;;;;;;;5074381;28;20480;-74
2022/08/25 04:07:27;;;;;;;24.73;16.20;;;;;;;;;;5074090;28;20558;-74
2022/08/25 04:09:55;;;;;;;23.10;16.80;;;;;;;;;;5074291;28;20458;-74
2022/08/25 04:12:23;;;;;;;21.20;15.53;;;;;;;;;;5074163;28;21090;-74
2022/08/25 04:14:50;;;;;;;22.93;16.00;;;;;;;;;;5073147;28;20467;-74
2022/08/25 04:17:17;;;;;;;19.80;14.17;;;;;;;;;;5074302;28;20455;-74
2022/08/25 04:19:44;;;;;;;20.87;15.70;;;;;;;;;;5073960;28;20487;-74
2022/08/25 04:22:12;;;;;;;19.93;14.70;;;;;;;;;;5073805;28;20468;-74
2022/08/25 04:24:39;;;;;;;24.10;15.23;;;;;;;;;;5073690;28;20841;-74
2022/08/25 04:27:07;;;;;;;23.47;15.97;;;;;;;;;;5073806;28;20455;-74
2022/08/25 04:29:34;;;;;;;22.10;15.97;;;;;;;;;;5073652;28;20456;-74
2022/08/25 04:32:01;;;;;;;21.30;15.70;;;;;;;;;;5073813;28;20945;-74
2022/08/25 04:34:29;;;;;;;24.30;15.17;;;;;;;;;;5073359;28;20470;-74
2022/08/25 04:36:56;;;;;;;24.93;15.43;;;;;;;;;;5073717;28;20455;-74
2022/08/25 04:39:24;;;;;;;21.30;15.50;;;;;;;;;;5073539;28;21012;-74
2022/08/25 04:41:51;;;;;;;22.00;15.80;;;;;;;;;;5073686;28;20447;-74
2022/08/25 04:44:20;;;;;;;19.60;14.87;;;;;;;;;;5073347;28;20487;-74
2022/08/25 04:46:48;;;;;;;23.23;14.40;;;;;;;;;;5073809;28;20455;-74
2022/08/25 04:49:15;;;;;;;21.23;16.07;;;;;;;;;;5073440;28;20502;-74
2022/08/25 04:51:43;;;;;;;20.77;15.27;;;;;;;;;;5073392;28;20459;-74
2022/08/25 04:54:11;;;;;;;22.17;14.67;;;;;;;;;;5073066;28;20483;-75
2022/08/25 04:56:40;;;;;;;24.43;13.47;;;;;;;;;;5073249;28;20454;-75
2022/08/25 04:59:08;;;;;;;18.10;11.50;;;;;;;;;;5073157;28;20487;-75
2022/08/25 05:01:37;;;;;;;17.80;12.70;;;;;;;;;;5073074;28;20539;-75
2022/08/25 05:04:06;;;;;;;18.80;11.70;;;;;;;;;;5073025;28;20855;-75
2022/08/25 05:06:33;;;;;;;22.13;12.53;;;;;;;;;;5073116;28;20459;-75
2022/08/25 05:09:01;;;;;;;14.53;11.90;;;;;;;;;;5073114;28;20452;-75
2022/08/25 05:11:29;;;;;;;18.20;11.37;;;;;;;;;;5072569;28;20478;-75
2022/08/25 05:13:58;;;;;;;14.23;11.30;;;;;;;;;;5074491;28;20565;-75
2022/08/25 05:16:26;;;;;;;16.93;14.13;;;;;;;;;;5092329;28;20447;-75
2022/08/25 05:18:55;;;;;;;12.13;10.83;;;;;;;;;;5093004;28;20482;-75
2022/08/25 05:21:23;;;;;;;11.83;10.57;;;;;;;;;;5092803;28;20458;-75
2022/08/25 05:23:51;;;;;;;12.03;10.67;;;;;;;;;;5092814;28;20975;-75
2022/08/25 05:26:20;;;;;;;11.97;10.40;;;;;;;;;;5092321;28;20968;-75
2022/08/25 05:28:47;;;;;;;11.10;9.93;;;;;;;;;;5092840;28;20447;-75
2022/08/25 05:31:15;;;;;;;12.87;10.87;;;;;;;;;;5093015;28;20546;-75
2022/08/25 05:33:43;;;;;;;11.63;10.50;;;;;;;;;;5092764;28;20832;-75
2022/08/25 05:36:13;;;;;;;11.30;10.20;;;;;;;;;;5093010;28;20458;-75
2022/08/25 05:38:40;;;;;;;10.27;9.27;;;;;;;;;;5092732;28;20483;-75
2022/08/25 05:41:09;;;;;;;15.30;12.13;;;;;;;;;;5092877;28;20454;-75
2022/08/25 05:43:37;;;;;;;13.23;11.23;;;;;;;;;;5092412;28;20477;-75
2022/08/25 05:46:04;;;;;;;20.43;12.40;;;;;;;;;;5092656;28;20450;-75
2022/08/25 05:48:31;;;;;;;14.07;11.50;;;;;;;;;;5092647;28;20447;-75
2022/08/25 05:50:59;;;;;;;13.13;11.53;;;;;;;;;;5092795;28;20454;-75
2022/08/25 05:53:28;;;;;;;12.10;9.80;;;;;;;;;;5092656;28;20470;-75
2022/08/25 05:55:56;;;;;;;10.83;9.27;;;;;;;;;;5092671;28;20457;-75
2022/08/25 05:58:24;;;;;;;11.00;9.30;;;;;;;;;;5092512;28;20451;-75
2022/08/25 06:00:51;;;;;;;10.43;9.20;;;;;;;;;;5092808;28;20813;-75
2022/08/25 06:03:18;;;;;;;11.53;9.83;;;;;;;;;;5092547;28;20549;-75
2022/08/25 06:05:45;;;;;;;10.00;9.00;;;;;;;;;;5089604;28;20447;-75
2022/08/25 06:08:12;;;;;;;11.33;10.07;;;;;;;;;;5090895;28;20828;-75
2022/08/25 06:10:41;;;;;;;13.33;9.73;;;;;;;;;;5091331;28;20869;-75
2022/08/25 06:13:08;;;;;;;10.17;9.17;;;;;;;;;;5090609;28;20467;-75
2022/08/25 06:15:35;;;;;;;9.43;8.60;;;;;;;;;;5091066;28;20458;-75
2022/08/25 06:18:03;;;;;;;9.50;8.43;;;;;;;;;;5090614;28;20525;-75
2022/08/25 06:20:31;;;;;;;8.83;8.00;;;;;;;;;;5090852;28;20489;-76
2022/08/25 06:22:59;;;;;;;8.10;7.30;;;;;;;;;;5091193;28;20471;-76
2022/08/25 06:25:26;;;;;;;8.97;8.07;;;;;;;;;;5091046;28;20982;-76
2022/08/25 06:27:56;;;;;;;9.30;8.30;;;;;;;;;;5090894;28;20458;-76
2022/08/25 06:30:24;;;;;;;8.57;7.87;;;;;;;;;;5091109;28;20492;-76
2022/08/25 06:32:51;;;;;;;8.97;7.53;;;;;;;;;;5091054;28;20447;-76
2022/08/25 06:35:19;;;;;;;9.07;8.23;;;;;;;;;;5070038;28;20459;-76
2022/08/25 06:37:46;;;;;;;7.70;7.00;;;;;;;;;;5072626;28;20898;-76
2022/08/25 06:40:13;;;;;;;7.90;6.97;;;;;;;;;;5074111;28;20487;-76
2022/08/25 06:42:41;;;;;;;9.50;8.03;;;;;;;;;;5074840;28;20960;-76
2022/08/25 06:45:10;;;;;;;14.40;9.27;;;;;;;;;;5088642;28;20457;-76
2022/08/25 06:47:37;;;;;;;10.50;8.03;;;;;;;;;;5095737;28;20455;-76
2022/08/25 06:50:04;;;;;;;10.03;7.60;;;;;;;;;;5088900;28;20448;-76
2022/08/25 06:52:32;;;;;;;7.40;6.70;;;;;;;;;;5075755;28;20447;-76
2022/08/25 06:54:59;;;;;;;7.30;6.60;;;;;;;;;;5075444;28;20463;-76
2022/08/25 06:57:26;;;;;;;8.23;7.43;;;;;;;;;;5078747;28;20458;-76
2022/08/25 06:59:53;;;;;;;9.10;8.30;;;;;;;;;;5083471;28;20487;-76
2022/08/25 07:02:22;;;;;;;7.23;6.63;;;;;;;;;;5093168;28;20450;-76
2022/08/25 07:04:51;;;;;;;6.87;6.20;;;;;;;;;;5094147;28;20485;-76
2022/08/25 07:07:18;;;;;;;7.57;6.77;;;;;;;;;;5094075;28;20823;-76
2022/08/25 07:09:46;;;;;;;9.90;7.30;;;;;;;;;;5094296;28;20447;-76
2022/08/25 07:12:13;;;;;;;10.80;7.77;;;;;;;;;;5094325;28;20452;-76
2022/08/25 07:14:40;;;;;;;9.90;8.90;;;;;;;;;;5093311;28;20924;-76
2022/08/25 07:17:07;;;;;;;9.77;8.07;;;;;;;;;;5094313;28;20454;-75
2022/08/25 07:19:35;;;;;;;8.17;7.33;;;;;;;;;;5093640;28;20493;-76
2022/08/25 07:22:02;;;;;;;10.10;7.60;;;;;;;;;;5093659;28;20462;-76
2022/08/25 07:24:30;;;;;;;7.77;6.97;;;;;;;;;;5093607;28;20470;-76
2022/08/25 07:26:57;;;;;;;7.23;6.53;;;;;;;;;;5094059;28;20858;-76
2022/08/25 07:29:25;;;;;;;6.73;6.10;;;;;;;;;;5093463;28;20447;-76
2022/08/25 07:31:53;;;;;;;9.00;6.57;;;;;;;;;;5093969;28;20938;-76
2022/08/25 07:37:06;;;;;;;6.63;6.03;;;;;;;;;;5093758;28;20934;-76
2022/08/25 07:39:34;;;;;;;6.50;5.90;;;;;;;;;;5093456;28;20494;-76
2022/08/25 07:42:01;;;;;;;6.90;6.30;;;;;;;;;;5093666;28;20508;-76
2022/08/25 07:44:28;;;;;;;7.60;6.90;;;;;;;;;;5093132;28;20479;-76
2022/08/25 07:46:56;;;;;;;7.80;6.10;;;;;;;;;;5093854;28;20829;-76
2022/08/25 07:49:24;;;;;;;7.47;6.77;;;;;;;;;;5092675;28;20446;-76
2022/08/25 07:51:52;;;;;;;9.70;6.90;;;;;;;;;;5093616;28;20458;-76
2022/08/25 07:54:21;;;;;;;7.63;7.00;;;;;;;;;;5093082;28;20574;-76
2022/08/25 07:56:48;;;;;;;10.27;8.10;;;;;;;;;;5093902;28;20516;-76
2022/08/25 07:59:16;;;;;;;8.97;7.83;;;;;;;;;;5092985;28;20505;-76
2022/08/25 08:01:43;;;;;;;8.73;6.97;;;;;;;;;;5093386;28;20451;-76
2022/08/25 08:04:10;;;;;;;12.63;7.80;;;;;;;;;;5092899;28;20485;-75
2022/08/25 08:06:37;;;;;;;11.33;8.50;;;;;;;;;;5093014;28;20453;-75
2022/08/25 08:09:04;;;;;;;11.00;9.83;;;;;;;;;;5084041;28;20444;-75
2022/08/25 08:11:39;;;;;;;12.73;8.50;;;;;;;;;;5081508;28;20869;-75
2022/08/25 08:14:07;;;;;;;8.67;7.77;;;;;;;;;;5072666;28;20481;-75
2022/08/25 08:16:34;;;;;;;10.27;7.60;;;;;;;;;;5074047;28;20448;-76
2022/08/25 08:19:02;;;;;;;9.43;8.43;;;;;;;;;;5073501;28;20463;-76
2022/08/25 08:21:31;;;;;;;11.20;9.00;;;;;;;;;;5073845;28;20509;-75
2022/08/25 08:23:58;;;;;;;15.17;8.37;;;;;;;;;;5092266;28;20906;-76
2022/08/25 08:26:26;;;;;;;10.53;8.83;;;;;;;;;;5093864;28;20461;-76
2022/08/25 08:28:55;;;;;;;14.40;8.60;;;;;;;;;;5094016;28;20451;-76
2022/08/25 08:31:23;;;;;;;11.43;8.97;;;;;;;;;;5093781;28;20446;-76
2022/08/25 08:33:51;;;;;;;14.53;10.10;;;;;;;;;;5093525;28;20545;-76
2022/08/25 08:36:19;;;;;;;15.77;9.57;;;;;;;;;;5086294;28;20446;-76
2022/08/25 08:38:46;;;;;;;10.77;8.80;;;;;;;;;;5083840;28;20927;-76
2022/08/25 08:44:09;;;;;;;14.93;9.53;;;;;;;;;;5073344;28;20522;-75
2022/08/25 08:46:40;;;;;;;13.57;8.87;;;;;;;;;;5073560;28;20952;-75
2022/08/25 08:49:11;;;;;;;14.43;9.70;;;;;;;;;;5073582;28;20861;-76
2022/08/25 08:51:45;;;;;;;15.13;9.50;;;;;;;;;;5073457;28;20456;-76
2022/08/25 08:54:17;;;;;;;19.23;10.20;;;;;;;;;;5073215;28;20499;-76
2022/08/25 08:56:46;;;;;;;16.30;11.03;;;;;;;;;;5073467;28;20459;-76
2022/08/25 08:59:18;;;;;;;18.67;11.30;;;;;;;;;;5073548;28;20475;-76
2022/08/25 09:01:47;;;;;;;13.80;10.07;;;;;;;;;;5072524;28;20447;-76
2022/08/25 09:04:16;;;;;;;18.33;11.50;;;;;;;;;;5072977;28;20478;-76
2022/08/25 09:06:44;;;;;;;14.60;9.23;;;;;;;;;;5073067;28;20513;-76
2022/08/25 09:09:13;;;;;;;18.73;10.07;;;;;;;;;;5073155;28;20443;-76
2022/08/25 09:11:47;;;;;;;15.80;9.83;;;;;;;;;;5078222;28;20477;-75
2022/08/25 09:14:21;;;;;;;13.03;8.93;;;;;;;;;;5072067;28;20466;-76
2022/08/25 09:16:56;;;;;;;15.20;11.00;;;;;;;;;;5072595;28;20444;-76
2022/08/25 09:19:30;;;;;;;15.70;9.27;;;;;;;;;;5072407;28;20443;-76
2022/08/25 09:22:02;;;;;;;15.00;10.40;;;;;;;;;;5072827;28;20459;-75
2022/08/25 09:24:37;;;;;;;16.13;9.90;;;;;;;;;;5072710;28;20475;-75
2022/08/25 09:27:11;;;;;;;16.07;9.90;;;;;;;;;;5073117;28;20878;-75
2022/08/25 09:29:49;;;;;;;19.40;11.40;;;;;;;;;;5072949;28;20448;-75
2022/08/25 09:32:16;;;;;;;21.83;10.77;;;;;;;;;;5072921;28;20600;-75
2022/08/25 09:34:44;;;;;;;26.43;10.00;;;;;;;;;;5072727;28;20475;-75
2022/08/25 09:37:11;;;;;;;12.40;9.60;;;;;;;;;;5072771;28;20452;-75
2022/08/25 09:39:38;;;;;;;15.63;9.93;;;;;;;;;;5072644;28;20455;-75
2022/08/25 09:42:06;;;;;;;18.60;11.17;;;;;;;;;;5073033;28;20800;-75
2022/08/25 09:44:35;;;;;;;20.53;10.07;;;;;;;;;;5072528;28;20471;-75
2022/08/25 09:47:05;;;;;;;16.20;9.90;;;;;;;;;;5072691;28;20502;-75
2022/08/25 09:49:37;;;;;;;16.47;10.83;;;;;;;;;;5072641;28;20447;-75
2022/08/25 09:52:19;;;;;;;14.67;10.23;;;;;;;;;;5072820;28;20509;-75
2022/08/25 09:54:46;;;;;;;20.60;11.33;;;;;;;;;;5070949;28;20483;-75
2022/08/25 09:57:28;;;;;;;14.17;10.23;;;;;;;;;;5072674;28;20980;-75
2022/08/25 09:59:55;;;;;;;18.70;11.90;;;;;;;;;;5072739;28;20480;-75
2022/08/25 10:02:25;;;;;;;15.10;9.50;;;;;;;;;;5072641;28;20505;-75
2022/08/25 10:04:52;;;;;;;20.13;9.60;;;;;;;;;;5072379;28;21000;-75
2022/08/25 10:07:22;;;;;;;21.47;10.47;;;;;;;;;;5072556;28;20458;-76
2022/08/25 10:09:53;;;;;;;15.57;10.20;;;;;;;;;;5072557;28;20682;-75
2022/08/25 10:12:22;;;;;;;15.03;9.80;;;;;;;;;;5074101;28;20452;-75
2022/08/25 10:14:50;;;;;;;19.20;9.90;;;;;;;;;;5075899;28;20570;-75
2022/08/25 10:17:23;;;;;;;19.30;11.40;;;;;;;;;;5076434;28;20452;-75
2022/08/25 10:19:52;;;;;;;24.37;10.30;;;;;;;;;;5076408;28;20554;-75
2022/08/25 10:22:25;;;;;;;19.90;10.00;;;;;;;;;;5076152;28;20463;-75
2022/08/25 10:24:54;;;;;;;24.90;10.67;;;;;;;;;;5076236;28;20568;-75
2022/08/25 10:27:24;;;;;;;14.40;9.80;;;;;;;;;;5076157;28;20455;-75
2022/08/25 10:30:13;;;;;;;20.43;10.17;;;;;;;;;;5076173;28;20443;-76
2022/08/25 10:32:58;;;;;;;17.77;10.57;;;;;;;;;;5076116;28;20447;-76
2022/08/25 10:35:30;;;;;;;17.40;10.57;;;;;;;;;;5065781;28;20451;-75
2022/08/25 10:38:03;;;;;;;19.43;9.80;;;;;;;;;;5076111;28;20447;-75
2022/08/25 10:40:35;;;;;;;29.43;10.53;;;;;;;;;;5075777;28;20494;-75
2022/08/25 10:43:06;;;;;;;18.00;9.80;;;;;;;;;;5075967;28;20558;-75
2022/08/25 10:45:41;;;;;;;18.73;10.30;;;;;;;;;;5075564;28;20463;-75
2022/08/25 10:48:26;;;;;;;16.97;9.50;;;;;;;;;;5075926;28;20447;-75
2022/08/25 10:50:57;;;;;;;22.47;10.80;;;;;;;;;;5075708;28;21019;-75
2022/08/25 10:53:27;;;;;;;15.37;9.57;;;;;;;;;;5075763;28;20467;-76
2022/08/25 10:56:01;;;;;;;20.07;10.50;;;;;;;;;;5075793;28;20452;-76
2022/08/25 10:58:32;;;;;;;20.53;8.60;;;;;;;;;;5075657;28;20451;-76
2022/08/25 11:01:03;;;;;;;17.63;9.10;;;;;;;;;;5075501;28;20574;-76
2022/08/25 11:03:36;;;;;;;25.77;10.57;;;;;;;;;;5075322;28;20497;-75
2022/08/25 11:06:06;;;;;;;21.83;9.93;;;;;;;;;;5075539;28;20449;-75
2022/08/25 11:08:37;;;;;;;20.70;9.50;;;;;;;;;;5075427;28;20456;-76
2022/08/25 11:11:06;;;;;;;17.30;9.47;;;;;;;;;;5075545;28;20458;-76
2022/08/25 11:13:38;;;;;;;21.47;9.43;;;;;;;;;;5074552;28;20477;-75
2022/08/25 11:16:10;;;;;;;20.00;10.10;;;;;;;;;;5075644;28;20808;-75
2022/08/25 11:18:39;;;;;;;22.90;11.07;;;;;;;;;;5075288;28;20459;-76
2022/08/25 11:21:10;;;;;;;20.13;10.20;;;;;;;;;;5075141;28;20498;-75
2022/08/25 11:23:40;;;;;;;23.03;10.47;;;;;;;;;;5074035;28;20486;-75
2022/08/25 11:26:09;;;;;;;24.20;10.77;;;;;;;;;;5075297;28;20451;-75
2022/08/25 11:28:39;;;;;;;26.47;11.00;;;;;;;;;;5075190;28;20459;-75
2022/08/25 11:31:07;;;;;;;25.87;11.40;;;;;;;;;;5075079;28;20940;-75
2022/08/25 11:33:34;;;;;;;20.40;10.83;;;;;;;;;;5074639;28;21000;-75
2022/08/25 11:36:22;;;;;;;21.03;10.47;;;;;;;;;;5075070;28;21008;-75
2022/08/25 11:38:54;;;;;;;17.73;9.67;;;;;;;;;;5075094;28;20925;-76
2022/08/25 11:41:26;;;;;;;21.13;9.40;;;;;;;;;;5074939;28;20487;-75
2022/08/25 11:44:07;;;;;;;22.43;9.67;;;;;;;;;;5074625;28;21338;-75
2022/08/25 11:46:53;;;;;;;18.20;8.70;;;;;;;;;;5074748;28;20456;-76
2022/08/25 11:49:37;;;;;;;17.43;10.70;;;;;;;;;;5074843;28;20494;-76
2022/08/25 11:52:05;;;;;;;23.80;9.60;;;;;;;;;;5074929;28;20452;-76
2022/08/25 11:54:37;;;;;;;21.37;9.43;;;;;;;;;;5074316;28;20464;-75
2022/08/25 11:57:07;;;;;;;14.53;8.80;;;;;;;;;;5074677;28;20452;-76
2022/08/25 11:59:53;;;;;;;20.03;9.30;;;;;;;;;;5074452;28;20458;-76
2022/08/25 12:02:37;;;;;;;15.20;9.87;;;;;;;;;;5074344;28;20895;-76
2022/08/25 12:05:06;;;;;;;21.17;9.73;;;;;;;;;;5074228;28;20452;-75
2022/08/25 12:08:37;;;;;;;17.47;7.27;;;;;;;;;;5074203;28;20455;-75
2022/08/25 12:10:58;;;;;;;26.40;8.80;;;;;;;;;;5074118;28;20539;-75
2022/08/25 12:13:28;;;;;;;14.80;9.07;;;;;;;;;;5073879;28;21108;-76
2022/08/25 12:15:57;;;;;;;18.53;9.33;;;;;;;;;;5074728;28;20447;-75
2022/08/25 12:18:42;;;;;;;17.63;10.13;;;;;;;;;;5074413;28;20463;-76
2022/08/25 12:21:10;;;;;;;19.03;8.30;;;;;;;;;;5074002;28;20491;-76
2022/08/25 12:23:39;;;;;;;25.03;9.40;;;;;;;;;;5073865;28;20472;-76
2022/08/25 12:26:12;;;;;;;14.60;8.10;;;;;;;;;;5074122;28;20456;-76
2022/08/25 12:28:48;;;;;;;22.37;7.90;;;;;;;;;;5073937;28;20460;-76
2022/08/25 12:31:20;;;;;;;21.13;8.13;;;;;;;;;;5074298;28;20955;-75
2022/08/25 12:33:56;;;;;;;23.37;10.90;;;;;;;;;;5073648;28;20544;-76
2022/08/25 12:36:28;;;;;;;21.20;9.43;;;;;;;;;;5073677;28;20489;-76
2022/08/25 12:38:55;;;;;;;16.50;10.73;;;;;;;;;;5073656;28;20451;-76
2022/08/25 12:41:23;;;;;;;20.37;9.60;;;;;;;;;;5073715;28;20488;-76
2022/08/25 12:43:53;;;;;;;19.40;10.80;;;;;;;;;;5073549;28;20475;-76
2022/08/25 12:46:33;;;;;;;13.87;9.20;;;;;;;;;;5073748;28;20455;-76
2022/08/25 12:49:01;;;;;;;11.60;7.47;;;;;;;;;;5073665;28;20452;-76
2022/08/25 12:51:29;;;;;;;11.63;8.10;;;;;;;;;;5073557;28;20949;-76
2022/08/25 12:54:00;;;;;;;13.03;9.50;;;;;;;;;;5073233;28;20822;-76
2022/08/25 12:56:29;;;;;;;26.17;9.87;;;;;;;;;;5073579;28;20455;-76
2022/08/25 12:59:03;;;;;;;13.87;9.73;;;;;;;;;;5074044;28;20458;-76
2022/08/25 13:01:35;;;;;;;17.80;10.30;;;;;;;;;;5074364;28;20573;-75
2022/08/25 13:04:21;;;;;;;18.20;9.00;;;;;;;;;;5073822;28;20475;-76
2022/08/25 13:07:06;;;;;;;16.00;8.20;;;;;;;;;;5073388;28;20456;-75
2022/08/25 13:10:03;;;;;;;14.20;8.80;;;;;;;;;;5073068;28;21047;-75
2022/08/25 13:12:34;;;;;;;19.77;9.13;;;;;;;;;;5073061;28;20827;-75
2022/08/25 13:15:03;;;;;;;15.63;8.70;;;;;;;;;;5072299;28;20999;-75
2022/08/25 13:17:31;;;;;;;12.70;8.27;;;;;;;;;;5073003;28;20828;-75
2022/08/25 13:20:16;;;;;;;14.30;9.60;;;;;;;;;;5073192;28;20448;-75
2022/08/25 13:22:45;;;;;;;21.80;9.50;;;;;;;;;;5072712;28;20595;-75
2022/08/25 13:25:15;;;;;;;13.00;8.47;;;;;;;;;;5072852;28;20961;-75
2022/08/25 13:27:42;;;;;;;11.13;7.77;;;;;;;;;;5072976;28;20879;-75
2022/08/25 13:30:20;;;;;;;17.73;9.67;;;;;;;;;;5072993;28;20455;-75
2022/08/25 13:32:47;;;;;;;10.93;7.10;;;;;;;;;;5073059;28;20451;-75
2022/08/25 13:35:15;;;;;;;13.23;7.97;;;;;;;;;;5072639;28;20863;-76
2022/08/25 13:37:42;;;;;;;9.30;6.03;;;;;;;;;;5072726;28;20456;-75
2022/08/25 13:40:11;;;;;;;18.20;8.20;;;;;;;;;;5072867;28;20491;-76
2022/08/25 13:42:39;;;;;;;11.63;7.60;;;;;;;;;;5072625;28;20514;-76
2022/08/25 13:45:06;;;;;;;10.10;6.77;;;;;;;;;;5072767;28;20765;-75
2022/08/25 13:47:36;;;;;;;12.23;6.90;;;;;;;;;;5072119;28;20542;-75
2022/08/25 13:50:20;;;;;;;13.43;7.83;;;;;;;;;;5072863;28;20455;-75
2022/08/25 13:52:49;;;;;;;8.43;7.33;;;;;;;;;;5072581;28;20451;-76
2022/08/25 13:55:20;;;;;;;8.30;7.50;;;;;;;;;;5072453;28;20454;-75
2022/08/25 13:57:48;;;;;;;10.97;6.77;;;;;;;;;;5072807;28;20448;-76
2022/08/25 14:00:25;;;;;;;17.00;7.37;;;;;;;;;;5072594;28;20452;-75
2022/08/25 14:02:54;;;;;;;11.00;6.80;;;;;;;;;;5072573;28;20495;-75
2022/08/25 14:05:31;;;;;;;9.80;7.03;;;;;;;;;;5072281;28;20830;-75
2022/08/25 14:07:58;;;;;;;10.63;7.40;;;;;;;;;;5072546;28;20451;-75
2022/08/25 14:10:34;;;;;;;13.37;7.57;;;;;;;;;;5072541;28;20499;-75
2022/08/25 14:13:08;;;;;;;14.50;7.77;;;;;;;;;;5072004;28;20463;-75
2022/08/25 14:15:37;;;;;;;13.20;7.33;;;;;;;;;;5072232;28;20454;-75
2022/08/25 14:18:07;;;;;;;9.83;6.87;;;;;;;;;;5072513;28;20834;-75
2022/08/25 14:20:35;;;;;;;8.83;7.40;;;;;;;;;;5072220;28;20455;-75
2022/08/25 14:23:04;;;;;;;13.20;6.63;;;;;;;;;;5072366;28;20491;-75
2022/08/25 14:25:32;;;;;;;11.60;7.80;;;;;;;;;;5072117;28;20451;-75
2022/08/25 14:28:00;;;;;;;8.17;6.90;;;;;;;;;;5072395;28;20505;-75
2022/08/25 14:30:27;;;;;;;10.70;7.20;;;;;;;;;;5072207;28;20456;-75
2022/08/25 14:32:55;;;;;;;8.13;6.20;;;;;;;;;;5072343;28;20440;-75
2022/08/25 14:35:24;;;;;;;10.87;7.00;;;;;;;;;;5072065;28;20454;-75
2022/08/25 14:37:51;;;;;;;15.30;7.40;;;;;;;;;;5072244;28;20448;-75
2022/08/25 14:40:18;;;;;;;8.43;6.67;;;;;;;;;;5072204;28;20459;-75
2022/08/25 14:42:46;;;;;;;10.23;6.60;;;;;;;;;;5071908;28;20484;-75
2022/08/25 14:45:13;;;;;;;10.73;5.97;;;;;;;;;;5071986;28;20533;-76
2022/08/25 14:47:41;;;;;;;7.40;6.27;;;;;;;;;;5072139;28;20464;-75